Time;durP1;ratioP1;P1;durP2;ratioP2;P2;SDS_P1;SDS_P2;PMS_P1;PMS_P2;Temp;Humidity;BMP_temperature;BMP_pressure;BME280_temperature;BME280_humidity;BME280_pressure;Samples;Min_cycle;Max_cycle;Signal;HPM_P1;HPM_P2
2024/02/07 00:02:08;;;;;;;9.60;3.90;;;;;;;8.16;87.59;98061.40;102295;1270;138011;-71
2024/02/07 00:04:35;;;;;;;7.10;4.50;;;;;;;8.18;87.54;98057.14;102284;1267;98011;-70
2024/02/07 00:07:03;;;;;;;8.40;3.90;;;;;;;8.21;87.44;98060.27;102496;1269;138739;-71
2024/02/07 00:09:29;;;;;;;6.70;3.80;;;;;;;8.23;87.00;98059.98;102293;1272;107268;-71
2024/02/07 00:11:56;;;;;;;8.00;4.20;;;;;;;8.24;87.00;98048.27;102406;1272;97870;-71
2024/02/07 00:14:23;;;;;;;6.90;3.50;;;;;;;8.27;86.77;98045.89;102434;1270;108187;-72
2024/02/07 00:16:50;;;;;;;5.10;3.40;;;;;;;8.29;86.45;98045.59;102378;1272;98437;-72
2024/02/07 00:19:17;;;;;;;5.50;3.30;;;;;;;8.32;86.19;98031.56;102298;1267;137975;-72
2024/02/07 00:21:44;;;;;;;5.20;3.60;;;;;;;8.35;86.07;98040.06;102369;1267;107198;-72
2024/02/07 00:24:11;;;;;;;10.40;3.70;;;;;;;8.39;85.91;98033.43;102278;1273;138440;-70
2024/02/07 00:26:38;;;;;;;7.20;3.50;;;;;;;8.42;85.79;98029.25;102415;1267;107976;-70
2024/02/07 00:29:05;;;;;;;7.00;3.10;;;;;;;8.45;85.67;98033.77;102293;1272;97870;-70
2024/02/07 00:31:32;;;;;;;7.40;3.50;;;;;;;8.49;85.35;98034.05;102328;1270;137967;-71
2024/02/07 00:33:59;;;;;;;7.70;3.50;;;;;;;8.52;85.22;98024.40;102342;1271;108893;-71
2024/02/07 00:36:26;;;;;;;9.70;3.60;;;;;;;8.54;85.00;98029.13;102304;1267;138597;-72
2024/02/07 00:38:53;;;;;;;9.20;3.40;;;;;;;8.55;85.15;98032.52;102325;1271;107408;-71
2024/02/07 00:41:25;;;;;;;8.20;3.60;;;;;;;8.55;85.06;98020.19;102598;1267;96224;-71
2024/02/07 00:43:53;;;;;;;6.40;3.30;;;;;;;8.55;85.00;98016.09;101526;1273;1002951;-71
2024/02/07 00:46:21;;;;;;;4.90;3.30;;;;;;;8.56;84.82;98017.71;102231;1273;107855;-70
2024/02/07 00:48:48;;;;;;;5.30;3.10;;;;;;;8.57;84.61;98025.27;102267;1267;139857;-72
2024/02/07 00:51:15;;;;;;;7.60;2.90;;;;;;;8.59;84.47;98010.57;102336;1267;106344;-71
2024/02/07 00:53:42;;;;;;;8.20;2.90;;;;;;;8.61;84.31;98010.48;102364;1273;97856;-71
2024/02/07 00:56:09;;;;;;;6.20;2.90;;;;;;;8.63;84.35;98011.98;102330;1268;139064;-71
2024/02/07 00:58:36;;;;;;;6.10;3.20;;;;;;;8.64;84.56;98012.39;102377;1270;106993;-71
2024/02/07 01:01:03;;;;;;;6.10;3.10;;;;;;;8.65;84.38;97992.78;102294;1267;138313;-72
2024/02/07 01:03:31;;;;;;;5.80;3.00;;;;;;;8.64;84.44;97986.27;102415;1267;105933;-71
2024/02/07 01:05:59;;;;;;;5.90;3.50;;;;;;;8.63;84.52;97994.45;102489;1270;98254;-72
2024/02/07 01:08:26;;;;;;;5.60;2.70;;;;;;;8.62;84.48;97990.02;102346;1267;111373;-71
2024/02/07 01:10:53;;;;;;;7.00;3.10;;;;;;;8.61;84.61;97982.42;102733;1270;107284;-71
2024/02/07 01:13:20;;;;;;;4.80;3.00;;;;;;;8.60;84.74;97983.19;102401;1270;138074;-71
2024/02/07 01:15:47;;;;;;;9.90;3.10;;;;;;;8.59;84.67;97982.92;102703;1268;107366;-73
2024/02/07 01:18:14;;;;;;;4.90;2.90;;;;;;;8.58;84.49;97977.58;102336;1267;138216;-72
2024/02/07 01:20:41;;;;;;;7.20;2.90;;;;;;;8.56;84.38;97963.83;102625;1266;109971;-72
2024/02/07 01:23:08;;;;;;;5.00;3.10;;;;;;;8.58;84.21;97969.63;102385;1267;107638;-71
2024/02/07 01:25:35;;;;;;;6.60;2.80;;;;;;;8.58;84.54;97955.38;102368;1267;140094;-71
2024/02/07 01:28:02;;;;;;;6.40;3.20;;;;;;;8.59;84.46;97960.18;102387;1270;107474;-71
2024/02/07 01:30:29;;;;;;;7.50;2.90;;;;;;;8.59;84.42;97947.55;102315;1267;138338;-71
2024/02/07 01:32:56;;;;;;;5.40;2.80;;;;;;;8.60;84.42;97955.64;102446;1266;110655;-71
2024/02/07 01:35:25;;;;;;;5.80;2.90;;;;;;;8.60;84.46;97947.48;102363;1267;106876;-71
2024/02/07 01:37:52;;;;;;;5.70;3.40;;;;;;;8.61;84.22;97923.05;102319;1266;138193;-71
2024/02/07 01:40:19;;;;;;;4.60;2.60;;;;;;;8.60;84.21;97947.98;102383;1270;107336;-70
2024/02/07 01:42:47;;;;;;;4.80;2.70;;;;;;;8.61;83.88;97946.25;102324;1267;139325;-71
2024/02/07 01:45:25;;;;;;;8.50;3.00;;;;;;;8.62;83.86;97926.41;102445;1267;111384;-71
2024/02/07 01:47:53;;;;;;;4.10;2.60;;;;;;;8.63;83.98;97934.32;102518;1267;106954;-71
2024/02/07 01:50:21;;;;;;;6.50;2.50;;;;;;;8.64;83.78;97924.59;102306;1267;138049;-71
2024/02/07 01:52:49;;;;;;;5.30;3.20;;;;;;;8.65;83.67;97926.42;102425;1267;107966;-71
2024/02/07 01:55:17;;;;;;;8.10;2.70;;;;;;;8.66;83.40;97921.48;102368;1270;138856;-71
2024/02/07 01:57:45;;;;;;;5.10;2.50;;;;;;;8.68;83.28;97913.09;102377;1270;111416;-72
2024/02/07 02:00:13;;;;;;;5.50;2.60;;;;;;;8.68;83.13;97926.75;102275;1270;139288;-70
2024/02/07 02:02:41;;;;;;;5.50;2.40;;;;;;;8.70;83.07;97909.16;101715;1267;1003697;-71
2024/02/07 02:05:08;;;;;;;4.40;2.50;;;;;;;8.69;82.90;97900.88;102479;1267;107667;-71
2024/02/07 02:07:35;;;;;;;5.00;2.40;;;;;;;8.69;83.01;97909.15;102291;1270;139830;-71
2024/02/07 02:10:04;;;;;;;6.00;2.60;;;;;;;8.71;83.01;97900.23;102429;1273;111414;-71
2024/02/07 02:12:32;;;;;;;5.10;2.50;;;;;;;8.72;82.75;97893.58;102205;1267;139292;-71
2024/02/07 02:14:59;;;;;;;4.30;2.40;;;;;;;8.72;82.58;97893.41;102293;1267;97834;-73
2024/02/07 02:17:26;;;;;;;4.10;2.30;;;;;;;8.74;82.19;97898.96;102392;1267;107155;-73
2024/02/07 02:19:53;;;;;;;7.10;2.60;;;;;;;8.76;82.25;97892.98;102189;1267;139378;-72
2024/02/07 02:22:34;;;;;;;5.40;2.20;;;;;;;8.78;82.20;97896.98;102428;1267;110301;-71
2024/02/07 02:25:37;;;;;;;7.20;2.40;;;;;;;8.79;82.08;97890.19;102267;1267;138200;-71
2024/02/07 02:28:18;;;;;;;4.70;2.10;;;;;;;8.81;82.08;97888.89;102386;1272;97983;-71
2024/02/07 02:30:50;;;;;;;3.60;2.20;;;;;;;8.81;81.99;97892.14;102214;1267;138020;-72
2024/02/07 02:33:19;;;;;;;5.80;2.30;;;;;;;8.82;81.86;97892.81;102570;1267;97819;-70
2024/02/07 02:35:48;;;;;;;8.10;3.10;;;;;;;8.81;81.86;97897.54;102383;1267;111350;-71
2024/02/07 02:38:15;;;;;;;3.90;2.30;;;;;;;8.81;81.93;97886.06;102263;1267;138064;-71
2024/02/07 02:40:43;;;;;;;4.60;2.50;;;;;;;8.82;81.60;97882.73;102397;1272;97841;-73
2024/02/07 02:43:10;;;;;;;6.30;2.40;;;;;;;8.83;81.69;97881.67;102270;1267;138045;-72
2024/02/07 02:45:37;;;;;;;4.90;2.20;;;;;;;8.84;81.59;97882.80;102404;1267;97915;-73
2024/02/07 02:48:04;;;;;;;5.70;2.40;;;;;;;8.84;81.32;97867.73;102309;1267;138235;-71
2024/02/07 02:50:32;;;;;;;5.70;2.70;;;;;;;8.85;81.34;97871.97;102389;1267;107718;-72
2024/02/07 02:52:58;;;;;;;4.20;2.50;;;;;;;8.85;81.10;97855.50;102392;1272;97852;-72
2024/02/07 02:55:26;;;;;;;7.10;2.30;;;;;;;8.86;80.89;97859.80;102281;1267;138262;-73
2024/02/07 02:57:59;;;;;;;3.60;2.20;;;;;;;8.88;81.08;97852.56;102357;1267;97796;-72
2024/02/07 03:00:26;;;;;;;4.80;2.20;;;;;;;8.88;80.74;97845.07;102458;1267;138468;-72
2024/02/07 03:02:55;;;;;;;4.10;2.20;;;;;;;8.88;80.85;97844.71;102235;1268;107032;-71
2024/02/07 03:05:37;;;;;;;8.60;2.40;;;;;;;8.88;80.85;97839.77;102340;1270;97849;-72
2024/02/07 03:08:16;;;;;;;5.10;2.10;;;;;;;8.90;80.87;97845.34;102319;1266;138295;-72
2024/02/07 03:10:43;;;;;;;3.50;1.80;;;;;;;8.89;80.79;97845.73;102435;1267;98459;-72
2024/02/07 03:13:12;;;;;;;5.50;2.30;;;;;;;8.89;80.70;97835.52;102322;1267;138588;-72
2024/02/07 03:15:39;;;;;;;6.40;2.30;;;;;;;8.90;80.75;97836.34;102362;1274;106984;-72
2024/02/07 03:18:06;;;;;;;3.60;2.10;;;;;;;8.89;80.58;97826.86;102240;1267;141672;-72
2024/02/07 03:20:35;;;;;;;4.40;2.10;;;;;;;8.90;80.39;97829.92;102301;1270;107991;-71
2024/02/07 03:23:04;;;;;;;4.20;2.10;;;;;;;8.90;80.46;97823.16;102704;1267;97854;-72
2024/02/07 03:25:33;;;;;;;3.10;1.90;;;;;;;8.91;80.21;97822.90;102268;1267;138331;-72
2024/02/07 03:28:02;;;;;;;6.00;2.00;;;;;;;8.91;80.15;97807.46;102339;1272;108128;-72
2024/02/07 03:30:29;;;;;;;4.00;2.00;;;;;;;8.93;79.99;97810.29;102215;1272;139344;-72
2024/02/07 03:32:56;;;;;;;4.70;2.10;;;;;;;8.94;79.90;97818.55;102396;1267;109035;-72
2024/02/07 03:35:23;;;;;;;3.60;2.00;;;;;;;8.95;79.70;97808.56;102328;1267;97870;-71
2024/02/07 03:37:50;;;;;;;3.30;1.90;;;;;;;8.97;79.56;97797.54;102250;1267;138189;-70
2024/02/07 03:40:18;;;;;;;5.40;2.20;;;;;;;8.99;79.15;97798.66;102267;1272;107397;-71
2024/02/07 03:42:46;;;;;;;4.70;2.00;;;;;;;8.99;79.04;97797.08;102199;1267;138491;-73
2024/02/07 03:45:16;;;;;;;5.50;2.20;;;;;;;9.00;78.86;97790.78;102264;1273;108825;-74
2024/02/07 03:47:43;;;;;;;4.30;2.10;;;;;;;9.01;78.96;97796.11;102232;1273;97942;-74
2024/02/07 03:50:12;;;;;;;4.10;2.10;;;;;;;9.01;79.01;97781.17;102247;1268;138329;-74
2024/02/07 03:52:42;;;;;;;5.70;2.50;;;;;;;9.01;79.18;97793.66;102306;1272;107293;-71
2024/02/07 03:55:11;;;;;;;6.80;1.80;;;;;;;9.01;79.18;97787.96;102210;1267;138381;-72
2024/02/07 03:57:42;;;;;;;6.30;2.10;;;;;;;8.99;79.39;97792.23;102342;1273;109580;-73
2024/02/07 04:00:13;;;;;;;5.30;2.30;;;;;;;8.99;79.65;97785.45;102234;1272;139570;-71
2024/02/07 04:02:41;;;;;;;4.20;2.40;;;;;;;8.98;80.07;97773.94;102472;1268;111337;-72
2024/02/07 04:05:11;;;;;;;4.80;2.30;;;;;;;8.94;80.32;97768.11;102371;1267;107243;-71
2024/02/07 04:07:38;;;;;;;4.40;2.00;;;;;;;8.90;80.61;97785.02;102710;1267;140015;-72
2024/02/07 04:10:09;;;;;;;4.90;2.40;;;;;;;8.84;80.87;97783.33;102378;1267;107063;-71
2024/02/07 05:17:51;;;;;;;2.20;0.50;;;;;;;6.68;86.01;97887.98;102373;1267;106486;-72
2024/02/07 05:20:18;;;;;;;2.70;0.50;;;;;;;6.55;86.55;97891.76;102224;1273;138437;-72
2024/02/07 05:22:45;;;;;;;1.60;0.60;;;;;;;6.43;87.14;97902.39;102400;1267;111277;-73
2024/02/07 05:25:13;;;;;;;2.50;0.80;;;;;;;6.32;87.33;97904.36;102135;1269;138771;-72
2024/02/07 05:27:39;;;;;;;1.40;0.60;;;;;;;6.24;87.76;97906.34;102344;1273;98994;-72
2024/02/07 05:30:08;;;;;;;0.90;0.20;;;;;;;6.15;88.06;97909.39;102355;1267;106885;-72
2024/02/07 05:32:35;;;;;;;0.60;0.30;;;;;;;6.04;87.72;97909.75;102334;1267;97698;-72
2024/02/07 05:35:02;;;;;;;2.30;0.50;;;;;;;5.93;87.43;97914.13;102368;1267;110745;-72
2024/02/07 05:37:30;;;;;;;0.50;0.30;;;;;;;5.84;87.87;97917.48;102217;1267;138102;-72
2024/02/07 05:39:57;;;;;;;0.30;0.20;;;;;;;5.76;87.95;97919.29;102345;1272;97813;-72
2024/02/07 05:42:24;;;;;;;1.00;0.40;;;;;;;5.68;88.07;97928.66;102306;1267;138053;-72
2024/02/07 05:44:51;;;;;;;0.60;0.60;;;;;;;5.61;88.61;97930.87;102394;1272;97908;-71
2024/02/07 05:47:20;;;;;;;2.30;0.50;;;;;;;5.56;88.51;97940.25;102268;1267;111315;-71
2024/02/07 05:49:46;;;;;;;0.60;0.30;;;;;;;5.50;88.78;97940.04;102644;1267;138133;-73
2024/02/07 05:52:14;;;;;;;0.30;0.20;;;;;;;5.43;88.95;97940.89;102409;1267;97719;-72
2024/02/07 05:54:41;;;;;;;0.60;0.40;;;;;;;5.39;89.45;97953.34;102294;1273;138798;-72
2024/02/07 05:57:09;;;;;;;0.90;0.40;;;;;;;5.35;89.84;97957.48;102371;1267;97729;-72
2024/02/07 05:59:35;;;;;;;1.50;0.40;;;;;;;5.27;89.71;97945.77;102381;1267;111198;-73
2024/02/07 06:02:04;;;;;;;0.80;0.70;;;;;;;5.15;89.02;97953.92;102225;1267;138318;-72
2024/02/07 06:04:34;;;;;;;0.60;0.40;;;;;;;5.03;89.25;97958.13;102384;1267;97733;-72
2024/02/07 06:07:01;;;;;;;1.70;0.30;;;;;;;4.93;89.11;97960.66;102246;1267;139249;-72
2024/02/07 06:09:28;;;;;;;0.90;0.50;;;;;;;4.83;89.18;97975.36;102287;1273;97814;-72
2024/02/07 06:11:54;;;;;;;2.00;0.50;;;;;;;4.77;89.60;97983.40;102517;1267;112360;-72
2024/02/07 06:14:21;;;;;;;0.70;0.40;;;;;;;4.70;89.85;97986.31;102304;1267;138351;-73
2024/02/07 06:16:48;;;;;;;0.70;0.40;;;;;;;4.65;90.03;97987.92;102407;1272;97815;-72
2024/02/07 06:19:17;;;;;;;0.70;0.50;;;;;;;4.59;90.33;97991.45;102271;1270;137968;-73
2024/02/07 06:21:45;;;;;;;0.50;0.50;;;;;;;4.52;90.47;97997.27;102350;1267;97809;-72
2024/02/07 06:24:12;;;;;;;0.50;0.30;;;;;;;4.47;90.65;97996.29;102373;1270;111654;-73
2024/02/07 06:26:39;;;;;;;0.80;0.40;;;;;;;4.42;90.69;98001.65;102349;1267;106971;-72
2024/02/07 06:29:05;;;;;;;0.60;0.30;;;;;;;4.38;90.56;98006.13;102466;1267;96942;-72
2024/02/07 06:31:33;;;;;;;1.10;0.40;;;;;;;4.35;90.59;98002.98;102207;1268;137812;-73
2024/02/07 06:34:00;;;;;;;1.60;0.80;;;;;;;4.31;90.69;98004.73;102448;1270;97632;-71
2024/02/07 06:36:27;;;;;;;1.60;0.60;;;;;;;4.27;90.70;98002.48;102348;1269;138424;-72
2024/02/07 06:38:54;;;;;;;0.90;0.60;;;;;;;4.22;90.51;98009.88;102426;1270;108271;-72
2024/02/07 06:41:23;;;;;;;1.30;0.80;;;;;;;4.18;90.97;98007.64;102445;1267;97761;-72
2024/02/07 06:43:50;;;;;;;2.50;1.00;;;;;;;4.18;91.12;98020.94;102295;1267;138166;-73
2024/02/07 06:46:17;;;;;;;1.30;0.90;;;;;;;4.18;91.34;98033.30;102350;1272;97862;-72
2024/02/07 06:48:44;;;;;;;2.00;1.20;;;;;;;4.17;91.35;98035.59;102291;1270;138221;-73
2024/02/07 06:51:11;;;;;;;1.10;1.00;;;;;;;4.14;91.52;98032.60;102308;1272;108029;-73
2024/02/07 06:53:38;;;;;;;1.90;1.00;;;;;;;4.11;90.90;98037.19;102453;1272;98358;-72
2024/02/07 06:56:05;;;;;;;1.30;0.80;;;;;;;4.09;91.11;98031.96;102303;1267;138062;-73
2024/02/07 06:58:32;;;;;;;2.70;1.00;;;;;;;4.05;90.95;98034.17;102674;1270;98097;-73
2024/02/07 07:01:01;;;;;;;1.20;1.00;;;;;;;4.04;90.82;98040.40;102257;1270;137964;-73
2024/02/07 07:03:29;;;;;;;4.10;0.90;;;;;;;4.00;90.17;98040.58;102855;1266;106883;-73
2024/02/07 07:05:57;;;;;;;1.00;0.50;;;;;;;3.94;89.84;98048.89;103023;1267;96913;-73
2024/02/07 07:08:24;;;;;;;1.80;0.70;;;;;;;3.86;89.29;98041.34;102253;1274;139286;-73
2024/02/07 07:10:51;;;;;;;1.90;0.80;;;;;;;3.81;89.30;98034.48;102264;1273;97599;-73
2024/02/07 07:13:18;;;;;;;1.10;0.60;;;;;;;3.80;89.29;98026.46;101927;1267;1002599;-73
2024/02/07 07:15:45;;;;;;;0.90;0.80;;;;;;;3.78;89.20;98026.87;102356;1267;107332;-73
2024/02/07 07:18:12;;;;;;;1.40;0.60;;;;;;;3.76;89.21;98024.86;102422;1268;97815;-74
2024/02/07 07:20:40;;;;;;;4.20;0.90;;;;;;;3.72;89.21;98025.21;102404;1267;108667;-72
2024/02/07 07:23:07;;;;;;;2.40;1.10;;;;;;;3.72;89.05;98025.73;102405;1267;97896;-72
2024/02/07 07:25:42;;;;;;;2.30;1.20;;;;;;;3.69;88.99;98029.30;102285;1270;138060;-72
2024/02/07 07:28:09;;;;;;;2.00;1.30;;;;;;;3.67;88.98;98027.66;102291;1267;107621;-72
2024/02/07 07:30:36;;;;;;;2.70;1.10;;;;;;;3.64;89.08;98011.42;102262;1267;138369;-72
2024/02/07 07:33:03;;;;;;;1.50;0.80;;;;;;;3.61;88.88;98019.80;101598;1267;1003493;-72
2024/02/07 07:35:30;;;;;;;0.50;0.50;;;;;;;3.59;88.93;98025.89;102409;1267;97943;-73
2024/02/07 07:38:02;;;;;;;1.80;0.70;;;;;;;3.58;89.04;98031.59;102686;1267;137987;-72
2024/02/07 07:40:30;;;;;;;0.70;0.50;;;;;;;3.56;88.98;98036.48;102527;1267;107678;-72
2024/02/07 07:42:57;;;;;;;2.80;0.70;;;;;;;3.54;88.94;98032.61;102260;1267;138904;-72
2024/02/07 07:45:23;;;;;;;0.80;0.60;;;;;;;3.53;88.97;98030.79;101623;1267;1003903;-72
2024/02/07 07:47:50;;;;;;;2.50;0.90;;;;;;;3.54;88.92;98029.54;102230;1270;97834;-71
2024/02/07 07:50:18;;;;;;;2.30;0.80;;;;;;;3.58;88.91;98031.61;102193;1273;137943;-72
2024/02/07 07:52:45;;;;;;;2.00;0.70;;;;;;;3.61;88.77;98024.79;102321;1267;108188;-73
2024/02/07 07:55:12;;;;;;;2.10;1.10;;;;;;;3.60;88.53;98023.97;102156;1273;138418;-72
2024/02/07 07:57:39;;;;;;;2.70;0.90;;;;;;;3.67;88.35;98033.15;102296;1270;107210;-72
2024/02/07 08:00:09;;;;;;;5.10;1.00;;;;;;;3.69;88.12;98028.41;102270;1267;97876;-72
2024/02/07 08:02:39;;;;;;;2.50;1.20;;;;;;;3.74;88.13;98038.71;103740;1267;112746;-74
2024/02/07 08:05:06;;;;;;;2.00;0.80;;;;;;;3.79;88.20;98041.09;102792;1268;107760;-73
2024/02/07 08:07:34;;;;;;;2.30;1.00;;;;;;;3.84;87.87;98035.91;102241;1270;138504;-72
2024/02/07 08:10:01;;;;;;;5.40;1.20;;;;;;;3.85;87.78;98033.80;102080;1270;106619;-73
2024/02/07 08:12:27;;;;;;;2.40;1.30;;;;;;;3.95;87.64;98046.63;102018;1269;138152;-72
2024/02/07 08:14:54;;;;;;;3.70;1.80;;;;;;;3.99;87.40;98046.98;102253;1267;111512;-74
2024/02/07 08:17:21;;;;;;;2.70;1.20;;;;;;;4.05;87.48;98051.56;102186;1267;107832;-73
2024/02/07 08:19:48;;;;;;;2.00;1.30;;;;;;;4.09;87.53;98047.42;102180;1273;138452;-73
2024/02/07 08:22:15;;;;;;;3.50;1.40;;;;;;;4.10;86.88;98049.45;102345;1270;107892;-73
2024/02/07 08:24:42;;;;;;;3.10;1.50;;;;;;;4.09;86.78;98051.02;102270;1267;137780;-72
2024/02/07 08:27:09;;;;;;;3.40;1.60;;;;;;;4.06;86.39;98051.53;102295;1273;110582;-72
2024/02/07 08:29:36;;;;;;;4.00;1.60;;;;;;;4.02;86.45;98057.50;102275;1272;108413;-71
2024/02/07 08:32:03;;;;;;;2.50;1.30;;;;;;;4.00;86.66;98050.04;102107;1270;138067;-71
2024/02/07 08:34:30;;;;;;;2.30;1.50;;;;;;;3.97;86.64;98050.52;102157;1268;107701;-71
2024/02/07 08:36:57;;;;;;;4.60;1.70;;;;;;;3.93;86.79;98058.88;102234;1267;138227;-72
2024/02/07 08:39:24;;;;;;;5.50;1.60;;;;;;;3.92;86.92;98051.89;102877;1270;111167;-71
2024/02/07 08:41:53;;;;;;;3.10;1.50;;;;;;;3.88;86.84;98058.61;102468;1267;108282;-73
2024/02/07 08:44:21;;;;;;;4.60;1.70;;;;;;;3.86;87.08;98054.40;102274;1272;138241;-72
2024/02/07 08:46:48;;;;;;;4.50;1.60;;;;;;;3.87;87.00;98051.44;103682;1267;107621;-72
2024/02/07 08:49:19;;;;;;;4.80;1.30;;;;;;;3.87;86.98;98048.84;103244;1267;138494;-72
2024/02/07 08:51:46;;;;;;;3.60;1.70;;;;;;;3.86;86.98;98048.86;102358;1267;110981;-72
2024/02/07 08:54:13;;;;;;;3.10;1.50;;;;;;;3.86;87.15;98043.40;102379;1267;107571;-72
2024/02/07 08:56:39;;;;;;;5.50;1.50;;;;;;;3.84;87.08;98038.14;102350;1267;97820;-73
2024/02/07 08:59:06;;;;;;;2.80;1.40;;;;;;;3.87;87.13;98037.30;102581;1267;107163;-71
2024/02/07 09:01:33;;;;;;;3.00;1.50;;;;;;;3.86;86.96;98026.02;102642;1267;138323;-73
2024/02/07 09:04:00;;;;;;;3.30;1.70;;;;;;;3.88;87.00;98023.86;102238;1267;110883;-72
2024/02/07 09:06:27;;;;;;;4.10;1.50;;;;;;;3.90;86.72;98022.91;102464;1269;138914;-73
2024/02/07 09:08:54;;;;;;;4.00;1.60;;;;;;;3.89;86.88;98025.54;102353;1267;97781;-72
2024/02/07 09:11:21;;;;;;;7.50;1.90;;;;;;;3.91;86.85;98029.57;102324;1270;107594;-72
2024/02/07 09:13:47;;;;;;;4.20;1.60;;;;;;;3.96;86.83;98029.06;102190;1272;138743;-70
2024/02/07 09:16:14;;;;;;;3.80;1.80;;;;;;;3.97;86.63;98039.51;102318;1273;111473;-70
2024/02/07 09:18:42;;;;;;;6.20;2.50;;;;;;;3.98;86.72;98034.80;102066;1270;138807;-73
2024/02/07 09:21:09;;;;;;;5.70;1.90;;;;;;;4.01;86.65;98028.52;102086;1270;97821;-71
2024/02/07 09:23:36;;;;;;;2.40;1.60;;;;;;;4.05;86.54;98031.45;103405;1269;108078;-71
2024/02/07 09:26:05;;;;;;;6.80;2.30;;;;;;;4.05;86.19;98041.77;102327;1270;138035;-70
2024/02/07 09:28:32;;;;;;;6.70;2.30;;;;;;;4.04;86.08;98047.64;102186;1270;111758;-71
2024/02/07 09:30:59;;;;;;;6.40;1.90;;;;;;;4.05;86.09;98052.08;102136;1273;138125;-69
2024/02/07 09:33:26;;;;;;;3.70;1.70;;;;;;;4.04;86.14;98049.70;102255;1272;97924;-71
2024/02/07 09:35:55;;;;;;;4.70;2.20;;;;;;;4.07;86.16;98051.64;102258;1272;106875;-71
2024/02/07 09:38:26;;;;;;;3.80;1.90;;;;;;;4.06;85.86;98048.94;102283;1270;139396;-70
2024/02/07 09:40:56;;;;;;;4.00;2.00;;;;;;;4.03;85.97;98050.27;102276;1270;112824;-71
2024/02/07 09:43:25;;;;;;;6.10;2.90;;;;;;;4.05;86.10;98056.38;102218;1272;141035;-71
2024/02/07 09:45:57;;;;;;;6.70;2.60;;;;;;;4.04;85.88;98063.80;102332;1270;98504;-71
2024/02/07 09:48:25;;;;;;;5.50;2.00;;;;;;;4.01;85.97;98061.85;102131;1269;141016;-71
2024/02/07 09:50:53;;;;;;;4.00;2.00;;;;;;;3.98;85.98;98063.88;102271;1270;99037;-72
2024/02/07 09:53:21;;;;;;;4.30;2.40;;;;;;;3.99;86.30;98063.69;102387;1270;110647;-71
2024/02/07 09:55:50;;;;;;;4.80;1.80;;;;;;;4.00;86.39;98069.48;103002;1267;138174;-73
2024/02/07 09:58:18;;;;;;;4.80;1.70;;;;;;;4.00;86.30;98061.41;102615;1272;97838;-72
2024/02/07 10:00:45;;;;;;;3.80;1.90;;;;;;;4.00;86.50;98060.68;102224;1269;139466;-70
2024/02/07 10:03:17;;;;;;;3.90;1.60;;;;;;;4.01;86.52;98064.10;102300;1271;98553;-71
2024/02/07 10:05:50;;;;;;;4.70;1.90;;;;;;;3.99;86.36;98063.48;102285;1270;110448;-71
2024/02/07 10:08:17;;;;;;;3.90;1.70;;;;;;;3.98;86.44;98067.52;102201;1272;138177;-72
2024/02/07 10:10:46;;;;;;;4.00;1.90;;;;;;;3.96;86.37;98066.19;102376;1273;97894;-72
2024/02/07 10:13:15;;;;;;;5.20;1.90;;;;;;;3.98;86.60;98070.92;102317;1270;138125;-72
2024/02/07 10:15:43;;;;;;;4.40;2.00;;;;;;;3.99;86.51;98071.25;102379;1272;98505;-72
2024/02/07 10:18:10;;;;;;;3.90;2.00;;;;;;;4.01;86.53;98071.64;102378;1272;111234;-71
2024/02/07 10:20:37;;;;;;;6.20;2.10;;;;;;;4.03;86.80;98059.20;102360;1273;137862;-72
2024/02/07 10:23:07;;;;;;;5.60;2.30;;;;;;;4.12;86.90;98060.02;102612;1272;97818;-71
2024/02/07 10:25:35;;;;;;;5.30;2.30;;;;;;;4.18;86.92;98074.93;102231;1272;138491;-71
2024/02/07 10:28:07;;;;;;;4.00;2.20;;;;;;;4.22;86.93;98086.11;102328;1269;97827;-71
2024/02/07 10:30:34;;;;;;;5.30;2.60;;;;;;;4.22;86.78;98076.13;102183;1268;138317;-72
2024/02/07 10:33:01;;;;;;;9.90;6.00;;;;;;;4.23;86.69;98072.79;102354;1272;106977;-73
2024/02/07 10:35:28;;;;;;;8.50;4.00;;;;;;;4.22;86.57;98075.94;102366;1272;97911;-72
2024/02/07 10:37:57;;;;;;;5.70;2.30;;;;;;;4.20;86.57;98086.69;102179;1270;138042;-73
2024/02/07 10:40:24;;;;;;;5.30;2.70;;;;;;;4.22;86.74;98089.19;101248;1272;1002980;-71
2024/02/07 10:42:59;;;;;;;5.90;2.20;;;;;;;4.24;86.66;98082.08;102206;1267;138472;-72
2024/02/07 10:45:26;;;;;;;4.60;2.50;;;;;;;4.21;86.75;98076.66;102331;1270;107792;-72
2024/02/07 10:47:55;;;;;;;6.00;2.20;;;;;;;4.22;86.48;98080.27;102318;1270;97803;-71
2024/02/07 10:50:23;;;;;;;6.00;2.40;;;;;;;4.24;86.19;98071.21;102280;1271;138015;-72
2024/02/07 10:52:51;;;;;;;5.60;2.20;;;;;;;4.24;86.14;98074.98;102326;1271;97733;-71
2024/02/07 10:55:21;;;;;;;8.60;2.60;;;;;;;4.24;86.18;98082.40;102325;1272;139640;-71
2024/02/07 10:57:54;;;;;;;6.80;2.30;;;;;;;4.23;86.18;98076.56;102730;1270;106944;-72
2024/02/07 11:00:22;;;;;;;6.60;2.50;;;;;;;4.21;85.96;98076.51;102183;1273;138339;-71
2024/02/07 11:02:50;;;;;;;6.20;2.10;;;;;;;4.21;86.18;98081.50;103047;1270;106980;-71
2024/02/07 11:05:21;;;;;;;8.40;2.40;;;;;;;4.21;86.16;98084.23;102287;1270;97901;-71
2024/02/07 11:07:49;;;;;;;6.70;2.30;;;;;;;4.22;86.23;98074.73;102164;1269;138515;-69
2024/02/07 11:10:17;;;;;;;6.20;2.60;;;;;;;4.21;86.27;98077.90;102228;1269;106669;-68
2024/02/07 11:12:48;;;;;;;6.80;2.60;;;;;;;4.22;86.52;98070.28;102231;1270;138359;-68
2024/02/07 11:15:15;;;;;;;9.60;2.50;;;;;;;4.25;86.20;98081.16;102402;1270;106936;-69
2024/02/07 11:17:42;;;;;;;8.40;2.80;;;;;;;4.23;85.86;98081.42;102428;1270;97872;-68
2024/02/07 11:20:12;;;;;;;7.20;2.70;;;;;;;4.22;86.07;98076.29;102421;1271;138002;-69
2024/02/07 11:22:42;;;;;;;11.80;2.90;;;;;;;4.20;85.76;98081.00;102513;1272;107755;-67
2024/02/07 11:25:16;;;;;;;7.30;2.60;;;;;;;4.21;86.13;98081.84;102252;1270;139181;-67
2024/02/07 11:27:43;;;;;;;6.40;2.70;;;;;;;4.22;85.69;98086.10;102463;1269;106845;-66
2024/02/07 11:30:12;;;;;;;8.80;2.50;;;;;;;4.26;85.86;98076.48;102284;1270;97872;-66
2024/02/07 11:32:39;;;;;;;7.60;2.70;;;;;;;4.28;85.83;98086.38;103121;1269;111458;-67
2024/02/07 11:35:11;;;;;;;8.50;2.50;;;;;;;4.29;85.70;98084.45;102400;1269;107247;-66
2024/02/07 11:37:39;;;;;;;9.50;2.60;;;;;;;4.29;85.45;98073.77;102258;1271;138541;-66
2024/02/07 11:40:09;;;;;;;6.30;2.50;;;;;;;4.30;85.44;98078.03;102277;1270;107611;-66
2024/02/07 11:42:40;;;;;;;9.50;2.60;;;;;;;4.29;85.31;98076.89;102669;1270;138307;-67
2024/02/07 11:45:12;;;;;;;8.40;2.70;;;;;;;4.30;85.21;98083.73;102274;1272;112700;-69
2024/02/07 11:47:42;;;;;;;10.40;3.20;;;;;;;4.29;85.28;98078.61;103111;1270;106849;-69
2024/02/07 11:50:16;;;;;;;13.00;4.40;;;;;;;4.28;85.34;98072.80;102488;1270;138406;-68
2024/02/07 11:52:44;;;;;;;9.20;3.00;;;;;;;4.25;85.31;98072.02;103280;1272;106954;-68
2024/02/07 11:55:14;;;;;;;9.00;2.90;;;;;;;4.22;85.16;98064.94;102820;1271;138106;-69
2024/02/07 11:57:43;;;;;;;9.30;3.20;;;;;;;4.21;85.20;98084.77;102773;1270;112258;-69
2024/02/07 12:00:16;;;;;;;7.10;2.80;;;;;;;4.21;85.53;98086.30;102419;1272;106139;-67
2024/02/07 12:02:48;;;;;;;9.80;3.40;;;;;;;4.21;85.31;98082.19;103086;1270;98414;-68
2024/02/07 12:05:17;;;;;;;10.70;3.40;;;;;;;4.22;85.46;98087.30;102970;1268;106639;-69
2024/02/07 12:07:47;;;;;;;8.00;3.40;;;;;;;4.23;85.35;98095.86;102314;1270;138229;-69
2024/02/07 12:10:14;;;;;;;8.30;3.10;;;;;;;4.23;85.65;98098.98;102634;1273;112249;-68
2024/02/07 12:12:42;;;;;;;9.60;3.60;;;;;;;4.21;85.41;98097.65;102173;1271;138284;-68
2024/02/07 12:15:10;;;;;;;10.80;3.20;;;;;;;4.23;85.67;98101.20;102358;1270;98357;-68
2024/02/07 12:17:38;;;;;;;12.70;3.70;;;;;;;4.26;85.62;98100.06;102447;1269;107461;-68
2024/02/07 12:20:06;;;;;;;10.60;3.50;;;;;;;4.28;85.52;98099.10;102279;1270;138291;-68
2024/02/07 12:22:35;;;;;;;10.70;3.30;;;;;;;4.29;85.52;98089.61;102639;1267;111296;-68
2024/02/07 12:25:05;;;;;;;10.10;3.10;;;;;;;4.29;85.44;98084.45;102181;1269;138514;-65
2024/02/07 12:27:32;;;;;;;7.30;3.20;;;;;;;4.33;85.41;98097.71;102418;1267;97847;-66
2024/02/07 12:30:00;;;;;;;10.80;3.30;;;;;;;4.35;85.29;98101.93;102428;1272;108580;-68
2024/02/07 12:32:29;;;;;;;10.80;3.10;;;;;;;4.39;85.28;98096.27;102272;1270;138381;-68
2024/02/07 12:34:59;;;;;;;8.10;3.40;;;;;;;4.45;85.18;98101.14;102273;1270;111903;-68
2024/02/07 12:37:27;;;;;;;11.10;3.10;;;;;;;4.50;85.03;98099.07;102156;1270;138241;-66